Airfield :
LOGIN :

Register | Disclaimer

   EN    FR    IT 

 










Legend :    VFR   Marginal VFR   IFR   Intensive IFR   Very Intensive IFR
Visi :
Ceiling :
>= 8 km
>= 3000ft
5 to 8 km
1000 to 3000 ft
1500m to 5 km
500 to 1000 ft
800 to 1500m
200 to 500 ft
< 800m
< 200 ft
Symbols :   Thunderstorms  Fog  Heavy snow  Heavy precipitations  Wind > 20 kt
SIGMETs :     Misc.  Thunderstorms  Icing  Turbulence  Mountain Waves  Volcanic Ashes






- Airport Elevation : 529 ft
- IATA code : CHR


LFLX - Chateauroux

CURRENT METAR :
  • 041130Z AUTO 01004KT 330V080 9999 FEW049 BKN110 24/13 Q1021 NOSIG

EXPIRED METARs :
  • 041100Z AUTO 01005KT 310V100 CAVOK 24/13 Q1021 NOSIG
  • 041030Z AUTO 03006KT 350V070 CAVOK 23/14 Q1021 NOSIG
  • 041000Z AUTO VRB03KT CAVOK 22/13 Q1021 NOSIG
  • 040930Z AUTO 01004KT 320V090 CAVOK 22/13 Q1021 NOSIG
  • 040900Z AUTO 04005KT 330V080 CAVOK 21/12 Q1021 NOSIG

TAF TAF LFLX
Valid from the 04 at 12:00 until the 05 at 18:00 UTC


041100Z 0412/0518 36006KT CAVOK



MET'MAP, your aeronautical weather chart ! - Copyright ORBIFLY December 2007 - Disclaimer

ORBIFLY MET'MAP TEAM :

Programming & Development : Alexandra Zaïnal
Original concept : Baudouin d'Aumeries
Technical & hardware support : Manuel Goepfert
Assistance : Marc-Olivier Méhu




SOURCES & CREDITS :

   NOAA